sensor_id;sensor_type;location;lat;lon;timestamp;temperature;humidity
60039;DHT22;45916;52.734;6.544;2023-03-14T00:01:13;9.80;99.90
60039;DHT22;45916;52.734;6.544;2023-03-14T00:03:39;9.90;99.90
60039;DHT22;45916;52.734;6.544;2023-03-14T00:06:07;9.90;99.90
60039;DHT22;45916;52.734;6.544;2023-03-14T00:08:33;9.90;99.90
60039;DHT22;45916;52.734;6.544;2023-03-14T00:11:07;9.90;99.90
60039;DHT22;45916;52.734;6.544;2023-03-14T00:13:33;10.00;99.90
60039;DHT22;45916;52.734;6.544;2023-03-14T00:16:13;10.10;99.90
60039;DHT22;45916;52.734;6.544;2023-03-14T00:18:39;10.10;99.90
60039;DHT22;45916;52.734;6.544;2023-03-14T00:21:06;10.20;99.90
60039;DHT22;45916;52.734;6.544;2023-03-14T00:23:34;10.20;99.90
60039;DHT22;45916;52.734;6.544;2023-03-14T00:26:01;10.20;99.90
60039;DHT22;45916;52.734;6.544;2023-03-14T00:28:27;10.30;99.90
60039;DHT22;45916;52.734;6.544;2023-03-14T00:30:53;10.30;99.90
60039;DHT22;45916;52.734;6.544;2023-03-14T00:33:19;10.40;99.90
60039;DHT22;45916;52.734;6.544;2023-03-14T00:35:58;10.50;99.90
60039;DHT22;45916;52.734;6.544;2023-03-14T00:38:25;10.50;99.90
60039;DHT22;45916;52.734;6.544;2023-03-14T00:40:52;10.50;99.90
60039;DHT22;45916;52.734;6.544;2023-03-14T00:43:18;10.60;99.90
60039;DHT22;45916;52.734;6.544;2023-03-14T00:45:47;10.60;99.90
60039;DHT22;45916;52.734;6.544;2023-03-14T00:48:13;10.50;99.90
60039;DHT22;45916;52.734;6.544;2023-03-14T00:50:39;10.50;99.90
60039;DHT22;45916;52.734;6.544;2023-03-14T00:53:04;10.40;99.90
60039;DHT22;45916;52.734;6.544;2023-03-14T00:55:30;10.40;99.90
60039;DHT22;45916;52.734;6.544;2023-03-14T00:57:56;10.40;99.90
60039;DHT22;45916;52.734;6.544;2023-03-14T01:00:22;10.30;99.90
60039;DHT22;45916;52.734;6.544;2023-03-14T01:02:48;10.30;99.90
60039;DHT22;45916;52.734;6.544;2023-03-14T01:05:14;10.30;99.90
60039;DHT22;45916;52.734;6.544;2023-03-14T01:07:40;10.30;99.90
60039;DHT22;45916;52.734;6.544;2023-03-14T01:10:06;10.30;99.90
60039;DHT22;45916;52.734;6.544;2023-03-14T01:12:32;10.20;99.90
60039;DHT22;45916;52.734;6.544;2023-03-14T01:14:58;10.20;99.90
60039;DHT22;45916;52.734;6.544;2023-03-14T01:17:24;10.10;99.90
60039;DHT22;45916;52.734;6.544;2023-03-14T01:19:49;10.00;99.90
60039;DHT22;45916;52.734;6.544;2023-03-14T01:22:15;10.00;99.90
60039;DHT22;45916;52.734;6.544;2023-03-14T01:24:41;9.90;99.90
60039;DHT22;45916;52.734;6.544;2023-03-14T01:27:06;9.90;99.90
60039;DHT22;45916;52.734;6.544;2023-03-14T01:29:32;9.90;99.90
60039;DHT22;45916;52.734;6.544;2023-03-14T01:31:58;9.80;99.90
60039;DHT22;45916;52.734;6.544;2023-03-14T01:34:23;9.80;99.90
60039;DHT22;45916;52.734;6.544;2023-03-14T01:36:49;9.90;99.90
60039;DHT22;45916;52.734;6.544;2023-03-14T01:39:15;9.80;99.90
60039;DHT22;45916;52.734;6.544;2023-03-14T01:41:41;9.70;99.90
60039;DHT22;45916;52.734;6.544;2023-03-14T01:44:13;9.60;99.90
60039;DHT22;45916;52.734;6.544;2023-03-14T01:46:44;9.50;99.90
60039;DHT22;45916;52.734;6.544;2023-03-14T01:52:02;9.40;99.90
60039;DHT22;45916;52.734;6.544;2023-03-14T01:54:42;9.40;99.90
60039;DHT22;45916;52.734;6.544;2023-03-14T01:57:14;9.40;99.90
60039;DHT22;45916;52.734;6.544;2023-03-14T01:59:46;9.40;99.90
60039;DHT22;45916;52.734;6.544;2023-03-14T02:02:14;9.60;99.90
60039;DHT22;45916;52.734;6.544;2023-03-14T02:04:41;9.70;99.90
60039;DHT22;45916;52.734;6.544;2023-03-14T02:07:23;9.80;99.90
60039;DHT22;45916;52.734;6.544;2023-03-14T02:09:50;9.80;99.90
60039;DHT22;45916;52.734;6.544;2023-03-14T02:12:17;9.90;99.90
60039;DHT22;45916;52.734;6.544;2023-03-14T02:14:43;10.00;99.90
60039;DHT22;45916;52.734;6.544;2023-03-14T02:17:16;10.00;99.90
60039;DHT22;45916;52.734;6.544;2023-03-14T02:22:35;10.00;99.90
60039;DHT22;45916;52.734;6.544;2023-03-14T02:28:00;10.10;99.90
60039;DHT22;45916;52.734;6.544;2023-03-14T02:30:28;10.10;99.90
60039;DHT22;45916;52.734;6.544;2023-03-14T02:33:04;10.10;99.90
60039;DHT22;45916;52.734;6.544;2023-03-14T02:35:35;10.10;99.90
60039;DHT22;45916;52.734;6.544;2023-03-14T02:38:24;10.20;99.90
60039;DHT22;45916;52.734;6.544;2023-03-14T02:40:53;10.20;99.90
60039;DHT22;45916;52.734;6.544;2023-03-14T02:43:19;10.10;99.90
60039;DHT22;45916;52.734;6.544;2023-03-14T02:45:47;10.00;99.90
60039;DHT22;45916;52.734;6.544;2023-03-14T02:48:25;9.90;99.90
60039;DHT22;45916;52.734;6.544;2023-03-14T02:50:52;9.80;99.90
60039;DHT22;45916;52.734;6.544;2023-03-14T02:53:23;9.80;99.90
60039;DHT22;45916;52.734;6.544;2023-03-14T02:55:50;9.80;99.90
60039;DHT22;45916;52.734;6.544;2023-03-14T02:58:16;9.80;99.90
60039;DHT22;45916;52.734;6.544;2023-03-14T03:00:42;9.80;99.90
60039;DHT22;45916;52.734;6.544;2023-03-14T03:03:08;9.80;99.90
60039;DHT22;45916;52.734;6.544;2023-03-14T03:05:34;9.80;99.90
60039;DHT22;45916;52.734;6.544;2023-03-14T03:08:00;9.70;99.90
60039;DHT22;45916;52.734;6.544;2023-03-14T03:10:27;9.70;99.90
60039;DHT22;45916;52.734;6.544;2023-03-14T03:12:53;9.70;99.90
60039;DHT22;45916;52.734;6.544;2023-03-14T03:15:18;9.60;99.90
60039;DHT22;45916;52.734;6.544;2023-03-14T03:17:44;9.60;99.90
60039;DHT22;45916;52.734;6.544;2023-03-14T03:20:10;9.50;99.90
60039;DHT22;45916;52.734;6.544;2023-03-14T03:22:37;9.50;99.90
60039;DHT22;45916;52.734;6.544;2023-03-14T03:25:04;9.40;99.90
60039;DHT22;45916;52.734;6.544;2023-03-14T03:27:31;9.40;99.90
60039;DHT22;45916;52.734;6.544;2023-03-14T03:29:57;9.40;99.90
60039;DHT22;45916;52.734;6.544;2023-03-14T03:32:24;9.50;99.90
60039;DHT22;45916;52.734;6.544;2023-03-14T03:34:50;9.40;99.90
60039;DHT22;45916;52.734;6.544;2023-03-14T03:37:16;9.40;99.90
60039;DHT22;45916;52.734;6.544;2023-03-14T03:39:41;9.50;99.90
60039;DHT22;45916;52.734;6.544;2023-03-14T03:42:07;9.50;99.90
60039;DHT22;45916;52.734;6.544;2023-03-14T03:44:33;9.50;99.90
60039;DHT22;45916;52.734;6.544;2023-03-14T03:46:58;9.50;99.90
60039;DHT22;45916;52.734;6.544;2023-03-14T03:49:27;9.50;99.90
60039;DHT22;45916;52.734;6.544;2023-03-14T03:51:53;9.50;99.90
60039;DHT22;45916;52.734;6.544;2023-03-14T03:54:19;9.50;99.90
60039;DHT22;45916;52.734;6.544;2023-03-14T03:56:44;9.50;99.90
60039;DHT22;45916;52.734;6.544;2023-03-14T03:59:10;9.50;99.90
60039;DHT22;45916;52.734;6.544;2023-03-14T04:01:36;9.60;99.90
60039;DHT22;45916;52.734;6.544;2023-03-14T04:04:01;9.50;99.90
60039;DHT22;45916;52.734;6.544;2023-03-14T04:06:27;9.60;99.90
60039;DHT22;45916;52.734;6.544;2023-03-14T04:08:53;9.60;99.90
60039;DHT22;45916;52.734;6.544;2023-03-14T04:11:19;9.70;99.90
60039;DHT22;45916;52.734;6.544;2023-03-14T04:13:45;9.60;99.90
60039;DHT22;45916;52.734;6.544;2023-03-14T04:16:19;9.60;99.90
60039;DHT22;45916;52.734;6.544;2023-03-14T04:18:46;9.60;99.90
60039;DHT22;45916;52.734;6.544;2023-03-14T04:21:11;9.50;99.90
60039;DHT22;45916;52.734;6.544;2023-03-14T04:23:37;9.50;99.90
60039;DHT22;45916;52.734;6.544;2023-03-14T04:26:03;9.50;99.90
60039;DHT22;45916;52.734;6.544;2023-03-14T04:28:29;9.50;99.90
60039;DHT22;45916;52.734;6.544;2023-03-14T04:30:55;9.50;99.90
60039;DHT22;45916;52.734;6.544;2023-03-14T04:33:20;9.50;99.90
60039;DHT22;45916;52.734;6.544;2023-03-14T04:35:47;9.50;99.90
60039;DHT22;45916;52.734;6.544;2023-03-14T04:38:13;9.50;99.90
60039;DHT22;45916;52.734;6.544;2023-03-14T04:40:40;9.50;99.90
60039;DHT22;45916;52.734;6.544;2023-03-14T04:43:07;9.40;99.90
60039;DHT22;45916;52.734;6.544;2023-03-14T04:45:35;9.40;99.90
60039;DHT22;45916;52.734;6.544;2023-03-14T04:48:01;9.40;99.90
60039;DHT22;45916;52.734;6.544;2023-03-14T04:50:26;9.40;99.90
60039;DHT22;45916;52.734;6.544;2023-03-14T04:52:52;9.40;99.90
60039;DHT22;45916;52.734;6.544;2023-03-14T04:55:18;9.50;99.90
60039;DHT22;45916;52.734;6.544;2023-03-14T04:57:43;9.40;99.90
60039;DHT22;45916;52.734;6.544;2023-03-14T05:00:10;9.50;99.90
60039;DHT22;45916;52.734;6.544;2023-03-14T05:02:35;9.40;99.90
60039;DHT22;45916;52.734;6.544;2023-03-14T05:05:01;9.40;99.90
60039;DHT22;45916;52.734;6.544;2023-03-14T05:07:27;9.40;99.90
60039;DHT22;45916;52.734;6.544;2023-03-14T05:09:53;9.40;99.90
60039;DHT22;45916;52.734;6.544;2023-03-14T05:12:22;9.40;99.90
60039;DHT22;45916;52.734;6.544;2023-03-14T05:14:47;9.50;99.90
60039;DHT22;45916;52.734;6.544;2023-03-14T05:17:13;9.50;99.90
60039;DHT22;45916;52.734;6.544;2023-03-14T05:19:40;9.60;99.90
60039;DHT22;45916;52.734;6.544;2023-03-14T05:22:06;9.50;99.90
60039;DHT22;45916;52.734;6.544;2023-03-14T05:24:32;9.50;99.90
60039;DHT22;45916;52.734;6.544;2023-03-14T05:26:58;9.50;99.90
60039;DHT22;45916;52.734;6.544;2023-03-14T05:29:24;9.50;99.90
60039;DHT22;45916;52.734;6.544;2023-03-14T05:31:50;9.60;99.90
60039;DHT22;45916;52.734;6.544;2023-03-14T05:34:15;9.50;99.90
60039;DHT22;45916;52.734;6.544;2023-03-14T05:36:41;9.50;99.90
60039;DHT22;45916;52.734;6.544;2023-03-14T05:39:07;9.40;99.90
60039;DHT22;45916;52.734;6.544;2023-03-14T05:41:32;9.50;99.90
60039;DHT22;45916;52.734;6.544;2023-03-14T05:43:58;9.40;99.90
60039;DHT22;45916;52.734;6.544;2023-03-14T05:46:24;9.40;99.90
60039;DHT22;45916;52.734;6.544;2023-03-14T05:48:49;9.40;99.90
60039;DHT22;45916;52.734;6.544;2023-03-14T05:51:15;9.40;99.90
60039;DHT22;45916;52.734;6.544;2023-03-14T05:53:41;9.40;99.90
60039;DHT22;45916;52.734;6.544;2023-03-14T05:56:07;9.40;99.90
60039;DHT22;45916;52.734;6.544;2023-03-14T05:58:33;9.40;99.90
60039;DHT22;45916;52.734;6.544;2023-03-14T06:01:02;9.50;99.90
60039;DHT22;45916;52.734;6.544;2023-03-14T06:03:29;9.40;99.90
60039;DHT22;45916;52.734;6.544;2023-03-14T06:05:54;9.40;99.90
60039;DHT22;45916;52.734;6.544;2023-03-14T06:08:20;9.40;99.90
60039;DHT22;45916;52.734;6.544;2023-03-14T06:10:46;9.40;99.90
60039;DHT22;45916;52.734;6.544;2023-03-14T06:13:11;9.40;99.90
60039;DHT22;45916;52.734;6.544;2023-03-14T06:15:37;9.40;99.90
60039;DHT22;45916;52.734;6.544;2023-03-14T06:18:03;9.30;99.90
60039;DHT22;45916;52.734;6.544;2023-03-14T06:20:28;9.40;99.90
60039;DHT22;45916;52.734;6.544;2023-03-14T06:22:54;9.40;99.90
60039;DHT22;45916;52.734;6.544;2023-03-14T06:25:20;9.40;99.90
60039;DHT22;45916;52.734;6.544;2023-03-14T06:27:46;9.40;99.90
60039;DHT22;45916;52.734;6.544;2023-03-14T06:30:11;9.40;99.90
60039;DHT22;45916;52.734;6.544;2023-03-14T06:32:37;9.40;99.90
60039;DHT22;45916;52.734;6.544;2023-03-14T06:35:03;9.40;99.90
60039;DHT22;45916;52.734;6.544;2023-03-14T06:37:29;9.40;99.90
60039;DHT22;45916;52.734;6.544;2023-03-14T06:39:55;9.50;99.90
60039;DHT22;45916;52.734;6.544;2023-03-14T06:42:21;9.40;99.90
60039;DHT22;45916;52.734;6.544;2023-03-14T06:44:47;9.50;99.90
60039;DHT22;45916;52.734;6.544;2023-03-14T06:47:13;9.60;99.90
60039;DHT22;45916;52.734;6.544;2023-03-14T06:49:39;9.60;99.90
60039;DHT22;45916;52.734;6.544;2023-03-14T06:52:05;9.60;99.90
60039;DHT22;45916;52.734;6.544;2023-03-14T06:54:30;9.60;99.90
60039;DHT22;45916;52.734;6.544;2023-03-14T06:56:56;9.60;99.90
60039;DHT22;45916;52.734;6.544;2023-03-14T06:59:22;9.60;99.90
60039;DHT22;45916;52.734;6.544;2023-03-14T07:01:50;9.70;99.90
60039;DHT22;45916;52.734;6.544;2023-03-14T07:04:16;9.70;99.90
60039;DHT22;45916;52.734;6.544;2023-03-14T07:06:42;9.60;99.90
60039;DHT22;45916;52.734;6.544;2023-03-14T07:09:11;9.70;99.90
60039;DHT22;45916;52.734;6.544;2023-03-14T07:11:37;9.80;99.90
60039;DHT22;45916;52.734;6.544;2023-03-14T07:14:03;9.80;99.90
60039;DHT22;45916;52.734;6.544;2023-03-14T07:16:28;9.80;99.90
60039;DHT22;45916;52.734;6.544;2023-03-14T07:18:57;9.70;99.90
60039;DHT22;45916;52.734;6.544;2023-03-14T07:21:23;9.60;99.90
60039;DHT22;45916;52.734;6.544;2023-03-14T07:23:49;9.50;99.90
60039;DHT22;45916;52.734;6.544;2023-03-14T07:26:14;9.40;99.90
60039;DHT22;45916;52.734;6.544;2023-03-14T07:28:40;9.40;99.90
60039;DHT22;45916;52.734;6.544;2023-03-14T07:31:06;9.30;99.90
60039;DHT22;45916;52.734;6.544;2023-03-14T07:33:32;9.20;99.90
60039;DHT22;45916;52.734;6.544;2023-03-14T07:35:58;9.10;99.90
60039;DHT22;45916;52.734;6.544;2023-03-14T07:38:24;9.10;99.90
60039;DHT22;45916;52.734;6.544;2023-03-14T07:40:50;8.90;99.90
60039;DHT22;45916;52.734;6.544;2023-03-14T07:43:16;9.00;99.90
60039;DHT22;45916;52.734;6.544;2023-03-14T07:45:45;8.80;99.90
60039;DHT22;45916;52.734;6.544;2023-03-14T07:48:11;8.60;99.90
60039;DHT22;45916;52.734;6.544;2023-03-14T07:50:36;8.50;99.90
60039;DHT22;45916;52.734;6.544;2023-03-14T07:53:02;8.20;99.90
60039;DHT22;45916;52.734;6.544;2023-03-14T07:55:28;8.00;99.90
60039;DHT22;45916;52.734;6.544;2023-03-14T07:57:53;7.80;99.90
60039;DHT22;45916;52.734;6.544;2023-03-14T08:00:19;7.70;99.90
60039;DHT22;45916;52.734;6.544;2023-03-14T08:02:45;7.60;99.90
60039;DHT22;45916;52.734;6.544;2023-03-14T08:05:11;7.50;99.90
60039;DHT22;45916;52.734;6.544;2023-03-14T08:07:36;7.40;99.90
60039;DHT22;45916;52.734;6.544;2023-03-14T08:10:03;7.20;99.90
60039;DHT22;45916;52.734;6.544;2023-03-14T08:12:28;7.00;99.90
60039;DHT22;45916;52.734;6.544;2023-03-14T08:14:54;7.00;99.90
60039;DHT22;45916;52.734;6.544;2023-03-14T08:17:20;7.00;99.90
60039;DHT22;45916;52.734;6.544;2023-03-14T08:19:45;6.80;99.90
60039;DHT22;45916;52.734;6.544;2023-03-14T08:22:11;6.60;99.90
60039;DHT22;45916;52.734;6.544;2023-03-14T08:24:37;6.60;99.90
60039;DHT22;45916;52.734;6.544;2023-03-14T08:27:02;6.60;99.90
60039;DHT22;45916;52.734;6.544;2023-03-14T08:29:28;6.50;99.90
60039;DHT22;45916;52.734;6.544;2023-03-14T08:31:54;6.50;99.90
60039;DHT22;45916;52.734;6.544;2023-03-14T08:34:21;6.50;99.90
60039;DHT22;45916;52.734;6.544;2023-03-14T08:36:47;6.50;99.90
60039;DHT22;45916;52.734;6.544;2023-03-14T08:39:12;6.40;99.90
60039;DHT22;45916;52.734;6.544;2023-03-14T08:41:38;6.50;99.90
60039;DHT22;45916;52.734;6.544;2023-03-14T08:44:10;6.50;99.90
60039;DHT22;45916;52.734;6.544;2023-03-14T08:46:36;6.60;99.90
60039;DHT22;45916;52.734;6.544;2023-03-14T08:49:03;6.60;99.90
60039;DHT22;45916;52.734;6.544;2023-03-14T08:51:29;6.60;99.90
60039;DHT22;45916;52.734;6.544;2023-03-14T08:53:55;6.70;99.90
60039;DHT22;45916;52.734;6.544;2023-03-14T08:56:20;6.50;99.90
60039;DHT22;45916;52.734;6.544;2023-03-14T08:58:46;6.60;99.90
60039;DHT22;45916;52.734;6.544;2023-03-14T09:01:12;6.70;99.90
60039;DHT22;45916;52.734;6.544;2023-03-14T09:03:38;6.70;99.90
60039;DHT22;45916;52.734;6.544;2023-03-14T09:06:05;6.80;99.90
60039;DHT22;45916;52.734;6.544;2023-03-14T09:08:31;6.80;99.90
60039;DHT22;45916;52.734;6.544;2023-03-14T09:10:57;6.90;99.90
60039;DHT22;45916;52.734;6.544;2023-03-14T09:13:23;7.00;99.90
60039;DHT22;45916;52.734;6.544;2023-03-14T09:15:52;7.10;99.90
60039;DHT22;45916;52.734;6.544;2023-03-14T09:18:18;7.10;99.90
60039;DHT22;45916;52.734;6.544;2023-03-14T09:20:44;7.20;99.90
60039;DHT22;45916;52.734;6.544;2023-03-14T09:23:10;7.60;99.90
60039;DHT22;45916;52.734;6.544;2023-03-14T09:25:35;7.80;99.90
60039;DHT22;45916;52.734;6.544;2023-03-14T09:28:01;8.00;99.90
60039;DHT22;45916;52.734;6.544;2023-03-14T09:30:27;8.10;99.90
60039;DHT22;45916;52.734;6.544;2023-03-14T09:32:52;8.20;99.90
60039;DHT22;45916;52.734;6.544;2023-03-14T09:35:18;8.30;99.90
60039;DHT22;45916;52.734;6.544;2023-03-14T09:37:44;8.20;99.90
60039;DHT22;45916;52.734;6.544;2023-03-14T09:40:14;8.20;99.90
60039;DHT22;45916;52.734;6.544;2023-03-14T09:42:41;8.30;99.90
60039;DHT22;45916;52.734;6.544;2023-03-14T09:45:13;8.40;99.90
60039;DHT22;45916;52.734;6.544;2023-03-14T09:47:40;8.50;99.90
60039;DHT22;45916;52.734;6.544;2023-03-14T09:50:13;8.80;99.90
60039;DHT22;45916;52.734;6.544;2023-03-14T09:52:40;9.00;99.90
60039;DHT22;45916;52.734;6.544;2023-03-14T09:55:19;9.40;99.90
60039;DHT22;45916;52.734;6.544;2023-03-14T09:57:48;9.50;99.90
60039;DHT22;45916;52.734;6.544;2023-03-14T10:00:21;9.70;99.90
60039;DHT22;45916;52.734;6.544;2023-03-14T10:03:06;9.80;99.90
60039;DHT22;45916;52.734;6.544;2023-03-14T10:05:34;9.90;99.90
60039;DHT22;45916;52.734;6.544;2023-03-14T10:08:00;10.00;99.90
60039;DHT22;45916;52.734;6.544;2023-03-14T10:10:26;10.10;99.90
60039;DHT22;45916;52.734;6.544;2023-03-14T10:13:05;10.30;99.90
60039;DHT22;45916;52.734;6.544;2023-03-14T10:15:34;10.30;99.90
60039;DHT22;45916;52.734;6.544;2023-03-14T10:18:02;9.90;99.90
60039;DHT22;45916;52.734;6.544;2023-03-14T10:20:36;9.60;99.90
60039;DHT22;45916;52.734;6.544;2023-03-14T10:23:05;9.10;99.90
60039;DHT22;45916;52.734;6.544;2023-03-14T10:25:34;8.70;99.90
60039;DHT22;45916;52.734;6.544;2023-03-14T10:28:00;8.60;99.90
60039;DHT22;45916;52.734;6.544;2023-03-14T10:33:30;9.10;99.90
60039;DHT22;45916;52.734;6.544;2023-03-14T10:36:00;9.30;99.90
60039;DHT22;45916;52.734;6.544;2023-03-14T10:38:31;9.30;99.90
60039;DHT22;45916;52.734;6.544;2023-03-14T10:40:57;9.30;99.90
60039;DHT22;45916;52.734;6.544;2023-03-14T10:43:27;9.10;99.90
60039;DHT22;45916;52.734;6.544;2023-03-14T10:46:23;8.90;99.90
60039;DHT22;45916;52.734;6.544;2023-03-14T10:48:47;8.70;99.90
60039;DHT22;45916;52.734;6.544;2023-03-14T10:51:19;8.50;99.90
60039;DHT22;45916;52.734;6.544;2023-03-14T10:53:55;8.50;99.90
60039;DHT22;45916;52.734;6.544;2023-03-14T10:56:23;8.60;99.90
60039;DHT22;45916;52.734;6.544;2023-03-14T10:58:51;8.60;99.90
60039;DHT22;45916;52.734;6.544;2023-03-14T11:01:41;8.80;99.90
60039;DHT22;45916;52.734;6.544;2023-03-14T11:21:49;9.90;99.90
60039;DHT22;45916;52.734;6.544;2023-03-14T11:31:46;9.10;99.90
60039;DHT22;45916;52.734;6.544;2023-03-14T11:34:29;9.60;91.10
60039;DHT22;45916;52.734;6.544;2023-03-14T11:37:05;9.70;86.60
60039;DHT22;45916;52.734;6.544;2023-03-14T11:39:39;9.30;94.70
60039;DHT22;45916;52.734;6.544;2023-03-14T11:42:11;9.20;93.50
60039;DHT22;45916;52.734;6.544;2023-03-14T11:44:40;9.30;97.70
60039;DHT22;45916;52.734;6.544;2023-03-14T11:47:19;9.40;94.60
60039;DHT22;45916;52.734;6.544;2023-03-14T11:52:27;10.00;91.40
60039;DHT22;45916;52.734;6.544;2023-03-14T11:55:00;10.30;92.40
60039;DHT22;45916;52.734;6.544;2023-03-14T11:57:28;10.60;84.90
60039;DHT22;45916;52.734;6.544;2023-03-14T12:05:46;11.10;76.00
60039;DHT22;45916;52.734;6.544;2023-03-14T12:13:54;10.20;79.50
60039;DHT22;45916;52.734;6.544;2023-03-14T12:16:33;9.90;72.80
60039;DHT22;45916;52.734;6.544;2023-03-14T12:22:06;9.50;80.40
60039;DHT22;45916;52.734;6.544;2023-03-14T12:24:36;9.60;75.60
60039;DHT22;45916;52.734;6.544;2023-03-14T12:27:04;9.50;75.30
60039;DHT22;45916;52.734;6.544;2023-03-14T12:29:31;9.30;74.30
60039;DHT22;45916;52.734;6.544;2023-03-14T12:32:12;9.10;76.90
60039;DHT22;45916;52.734;6.544;2023-03-14T12:34:46;9.10;68.00
60039;DHT22;45916;52.734;6.544;2023-03-14T12:37:23;9.00;70.30
60039;DHT22;45916;52.734;6.544;2023-03-14T12:45:26;8.70;72.50
60039;DHT22;45916;52.734;6.544;2023-03-14T12:50:30;8.80;79.20
60039;DHT22;45916;52.734;6.544;2023-03-14T12:55:46;9.50;75.50
60039;DHT22;45916;52.734;6.544;2023-03-14T13:01:35;10.20;81.10
60039;DHT22;45916;52.734;6.544;2023-03-14T13:04:10;10.20;73.10
60039;DHT22;45916;52.734;6.544;2023-03-14T13:06:52;10.00;74.40
60039;DHT22;45916;52.734;6.544;2023-03-14T13:12:14;9.90;79.30
60039;DHT22;45916;52.734;6.544;2023-03-14T13:14:50;9.80;79.30
60039;DHT22;45916;52.734;6.544;2023-03-14T13:17:29;9.70;79.60
60039;DHT22;45916;52.734;6.544;2023-03-14T13:19:59;9.60;83.50
60039;DHT22;45916;52.734;6.544;2023-03-14T13:22:28;9.50;88.90
60039;DHT22;45916;52.734;6.544;2023-03-14T13:25:07;9.40;86.90
60039;DHT22;45916;52.734;6.544;2023-03-14T13:27:37;9.30;84.20
60039;DHT22;45916;52.734;6.544;2023-03-14T13:30:24;9.00;85.30
60039;DHT22;45916;52.734;6.544;2023-03-14T13:32:51;8.80;88.50
60039;DHT22;45916;52.734;6.544;2023-03-14T13:36:01;8.70;86.00
60039;DHT22;45916;52.734;6.544;2023-03-14T13:38:22;8.50;91.50
60039;DHT22;45916;52.734;6.544;2023-03-14T13:40:50;8.50;87.00
60039;DHT22;45916;52.734;6.544;2023-03-14T13:43:23;8.50;84.90
60039;DHT22;45916;52.734;6.544;2023-03-14T13:48:29;8.70;65.30
60039;DHT22;45916;52.734;6.544;2023-03-14T13:51:16;8.40;60.20
60039;DHT22;45916;52.734;6.544;2023-03-14T13:53:47;8.20;63.00
60039;DHT22;45916;52.734;6.544;2023-03-14T13:56:14;8.00;69.10
60039;DHT22;45916;52.734;6.544;2023-03-14T13:58:41;8.00;69.70
60039;DHT22;45916;52.734;6.544;2023-03-14T14:03:40;8.00;71.80
60039;DHT22;45916;52.734;6.544;2023-03-14T14:06:31;8.00;71.10
60039;DHT22;45916;52.734;6.544;2023-03-14T14:09:01;8.00;71.80
60039;DHT22;45916;52.734;6.544;2023-03-14T14:11:55;8.20;73.90
60039;DHT22;45916;52.734;6.544;2023-03-14T14:14:32;8.40;76.20
60039;DHT22;45916;52.734;6.544;2023-03-14T14:17:00;8.60;70.90
60039;DHT22;45916;52.734;6.544;2023-03-14T14:19:28;8.60;69.90
60039;DHT22;45916;52.734;6.544;2023-03-14T14:21:55;8.40;70.40
60039;DHT22;45916;52.734;6.544;2023-03-14T14:24:23;8.30;71.90
60039;DHT22;45916;52.734;6.544;2023-03-14T14:26:58;8.30;72.80
60039;DHT22;45916;52.734;6.544;2023-03-14T14:29:31;8.20;73.30
60039;DHT22;45916;52.734;6.544;2023-03-14T14:32:14;8.00;72.40
60039;DHT22;45916;52.734;6.544;2023-03-14T14:34:56;7.80;72.90
60039;DHT22;45916;52.734;6.544;2023-03-14T14:37:24;7.70;73.10
60039;DHT22;45916;52.734;6.544;2023-03-14T14:39:52;7.60;72.60
60039;DHT22;45916;52.734;6.544;2023-03-14T14:42:20;7.60;71.80
60039;DHT22;45916;52.734;6.544;2023-03-14T14:44:51;7.60;72.70
60039;DHT22;45916;52.734;6.544;2023-03-14T14:47:22;7.60;73.20
60039;DHT22;45916;52.734;6.544;2023-03-14T14:49:50;7.60;72.50
60039;DHT22;45916;52.734;6.544;2023-03-14T14:52:19;7.60;73.40
60039;DHT22;45916;52.734;6.544;2023-03-14T14:54:58;7.70;74.20
60039;DHT22;45916;52.734;6.544;2023-03-14T14:57:32;7.80;76.40
60039;DHT22;45916;52.734;6.544;2023-03-14T15:00:06;7.80;76.90
60039;DHT22;45916;52.734;6.544;2023-03-14T15:02:41;7.80;78.70
60039;DHT22;45916;52.734;6.544;2023-03-14T15:05:23;7.90;81.10
60039;DHT22;45916;52.734;6.544;2023-03-14T15:07:49;7.90;81.60
60039;DHT22;45916;52.734;6.544;2023-03-14T15:10:17;7.90;79.40
60039;DHT22;45916;52.734;6.544;2023-03-14T15:12:43;7.80;82.20
60039;DHT22;45916;52.734;6.544;2023-03-14T15:15:10;7.70;82.50
60039;DHT22;45916;52.734;6.544;2023-03-14T15:17:37;7.80;83.00
60039;DHT22;45916;52.734;6.544;2023-03-14T15:20:05;7.90;77.40
60039;DHT22;45916;52.734;6.544;2023-03-14T15:22:31;8.10;77.80
60039;DHT22;45916;52.734;6.544;2023-03-14T15:24:57;8.10;73.80
60039;DHT22;45916;52.734;6.544;2023-03-14T15:27:23;8.10;73.10
60039;DHT22;45916;52.734;6.544;2023-03-14T15:29:48;7.90;72.00
60039;DHT22;45916;52.734;6.544;2023-03-14T15:32:16;7.60;72.60
60039;DHT22;45916;52.734;6.544;2023-03-14T15:34:43;7.30;71.80
60039;DHT22;45916;52.734;6.544;2023-03-14T15:37:14;7.10;74.50
60039;DHT22;45916;52.734;6.544;2023-03-14T15:39:41;6.80;76.60
60039;DHT22;45916;52.734;6.544;2023-03-14T15:42:08;6.60;77.40
60039;DHT22;45916;52.734;6.544;2023-03-14T15:44:34;6.50;76.80
60039;DHT22;45916;52.734;6.544;2023-03-14T15:46:59;6.50;79.50
60039;DHT22;45916;52.734;6.544;2023-03-14T15:49:25;6.50;80.50
60039;DHT22;45916;52.734;6.544;2023-03-14T15:51:51;6.60;83.50
60039;DHT22;45916;52.734;6.544;2023-03-14T15:54:16;6.70;89.40
60039;DHT22;45916;52.734;6.544;2023-03-14T15:56:42;6.70;97.50
60039;DHT22;45916;52.734;6.544;2023-03-14T15:59:08;6.60;99.90
60039;DHT22;45916;52.734;6.544;2023-03-14T16:01:34;6.60;99.90
60039;DHT22;45916;52.734;6.544;2023-03-14T16:03:59;6.60;99.90
60039;DHT22;45916;52.734;6.544;2023-03-14T16:06:27;6.60;99.90
60039;DHT22;45916;52.734;6.544;2023-03-14T16:08:53;6.60;99.90
60039;DHT22;45916;52.734;6.544;2023-03-14T16:11:19;6.70;99.90
60039;DHT22;45916;52.734;6.544;2023-03-14T16:13:45;6.60;99.90
60039;DHT22;45916;52.734;6.544;2023-03-14T16:16:12;6.60;99.90
60039;DHT22;45916;52.734;6.544;2023-03-14T16:18:38;6.40;99.90
60039;DHT22;45916;52.734;6.544;2023-03-14T16:21:11;6.30;99.90
60039;DHT22;45916;52.734;6.544;2023-03-14T16:23:37;6.10;99.90
60039;DHT22;45916;52.734;6.544;2023-03-14T16:26:05;6.10;99.90
60039;DHT22;45916;52.734;6.544;2023-03-14T16:28:31;5.90;99.90
60039;DHT22;45916;52.734;6.544;2023-03-14T16:31:10;5.80;99.90
60039;DHT22;45916;52.734;6.544;2023-03-14T16:33:37;5.90;99.90
60039;DHT22;45916;52.734;6.544;2023-03-14T16:36:05;5.80;99.90
60039;DHT22;45916;52.734;6.544;2023-03-14T16:38:37;5.70;99.90
60039;DHT22;45916;52.734;6.544;2023-03-14T16:41:06;5.60;99.90
60039;DHT22;45916;52.734;6.544;2023-03-14T16:43:33;5.60;99.90
60039;DHT22;45916;52.734;6.544;2023-03-14T16:46:01;5.60;99.90
60039;DHT22;45916;52.734;6.544;2023-03-14T16:48:27;5.70;99.90
60039;DHT22;45916;52.734;6.544;2023-03-14T16:50:53;5.70;99.90
60039;DHT22;45916;52.734;6.544;2023-03-14T16:53:20;5.50;99.90
60039;DHT22;45916;52.734;6.544;2023-03-14T16:55:46;5.50;99.90
60039;DHT22;45916;52.734;6.544;2023-03-14T16:58:12;5.40;99.90
60039;DHT22;45916;52.734;6.544;2023-03-14T17:00:38;5.30;99.90
60039;DHT22;45916;52.734;6.544;2023-03-14T17:03:04;5.30;99.90
60039;DHT22;45916;52.734;6.544;2023-03-14T17:05:31;5.30;99.90
60039;DHT22;45916;52.734;6.544;2023-03-14T17:07:57;5.40;99.90